Piarco, Trinidad And Tobago

9:46 PM AST on February 26, 2015 (GMT -0400)
Mount St. Benedict | Change Station
CLOSE
Current Station
Personal Weather Station
Location: St. Augustine, ST GEORGE
Elevation: 210 ft
Nearby Weather Stations

Elev 210 ft 10.65 °N, 61.40 °W | Updated 9 seconds ago

Light Rain
Light Rain
72.7 °F
Feels Like 72.7 °F
N
0.0
Wind Variable Wind from NE
Gusts 0.0 mph

Today
High -- | Low -- °F
--% Chance of Precip.
Yesterday
High -- | Low -- °F
Precip. -- in
6:21 AM 6:15 PM
Waxing Gibbous, 64% visible
Pressure 29.98 in
Visibility 6.2 miles
Clouds Few 300 ft
Scattered Clouds 1400 ft
Mostly Cloudy 3800 ft
Dew Point 72 °F
Humidity 97%
Rainfall 1.30 in
Snow Depth Not available.
UV 0.0 out of 12
Pollen Not available.
Air Quality Not available.
Flu Activity Not available.
SPECI TTPP 270125Z 00000KT 9999 -RA FEW003 SCT014 BKN038 23/22 Q1015 NOSIG

More Conditions Fewer Conditions

Pressure 29.98 in
Visibility 6.2 miles
Clouds Few 300 ft
Scattered Clouds 1400 ft
Mostly Cloudy 3800 ft
Dew Point 72 °F
Humidity 97%
Rainfall 1.30 in
Snow Depth Not available.
UV 0.0 out of 12
Pollen Not available.
Air Quality Not available.
Flu Activity Not available.
SPECI TTPP 270125Z 00000KT 9999 -RA FEW003 SCT014 BKN038 23/22 Q1015 NOSIG

More Conditions Fewer Conditions

10-Day Weather Forecast

Almanac

Astronomy

Feb. 26, 2015 Rise Set
Actual Time
Civil Twilight
Nautical Twilight
Astronomical Twilight
Moon
Length of Visible Light
Length of Day
Tomorrow will be .
, % of the Moon is Illuminated

Today's Extremes

Country Highs Country Lows

Community

WunderPhotos

Upload Photos

1,800,553 photos uploaded!

WunderBlogs® & News

Nearby

Air Quality

  Air Quality AQ Index Pollutant
Not available.

Snow Depth

Station Depth Elevation

Earthquake Activity

City Distance Mag. Time & Date
Minimum magnitude displayed is 2.5.

Coastal Water Temperatures

Place Temperature

Nearby Weather Stations